Time;durP1;ratioP1;P1;durP2;ratioP2;P2;SDS_P1;SDS_P2;PMS_P1;PMS_P2;Temp;Humidity;BMP_temperature;BMP_pressure;BME280_temperature;BME280_humidity;BME280_pressure;Samples;Min_cycle;Max_cycle;Signal;HPM_P1;HPM_P2
2021/10/27 00:01:24;;;;;;;65.40;37.20;;;153.60;2252.80;;;;;;4808459;29;20070;-58
2021/10/27 00:03:50;;;;;;;64.43;38.67;;;153.60;2252.80;;;;;;4808494;29;20038;-58
2021/10/27 00:06:16;;;;;;;66.53;40.08;;;128.90;2252.80;;;;;;4808468;29;20043;-58
2021/10/27 00:08:42;;;;;;;68.80;39.45;;;128.90;2252.80;;;;;;4808401;29;20035;-58
2021/10/27 00:11:08;;;;;;;64.28;36.75;;;128.90;2252.80;;;;;;4808353;29;20035;-58
2021/10/27 00:13:34;;;;;;;57.92;34.50;;;128.90;2252.80;;;;;;4808869;29;20453;-58
2021/10/27 00:16:02;;;;;;;64.43;38.15;;;128.80;2252.80;;;;;;4808250;29;20041;-60
2021/10/27 00:18:29;;;;;;;66.78;36.47;;;128.80;2252.80;;;;;;4808470;29;20122;-58
2021/10/27 00:20:55;;;;;;;68.43;40.03;;;128.80;2252.80;;;;;;4808132;29;20054;-58
2021/10/27 00:23:21;;;;;;;69.68;40.63;;;128.80;2252.80;;;;;;4808412;29;20108;-58
2021/10/27 00:25:47;;;;;;;73.13;41.92;;;128.60;2252.80;;;;;;4808061;29;20069;-58
2021/10/27 00:28:12;;;;;;;89.13;43.45;;;128.40;2252.80;;;;;;4808372;29;20031;-70
2021/10/27 00:30:38;;;;;;;86.28;43.53;;;128.50;2252.80;;;;;;4807931;29;20038;-59
2021/10/27 00:33:04;;;;;;;93.47;50.50;;;128.70;2252.80;;;;;;4808275;29;20027;-58
2021/10/27 00:35:30;;;;;;;101.72;48.60;;;128.50;2252.80;;;;;;4808113;29;20426;-69
2021/10/27 00:37:56;;;;;;;129.43;57.70;;;128.40;2252.80;;;;;;4808169;29;20034;-58
2021/10/27 00:40:22;;;;;;;104.07;51.65;;;128.30;2252.80;;;;;;4807780;29;20039;-58
2021/10/27 00:42:48;;;;;;;116.57;54.72;;;128.20;2252.80;;;;;;4807836;29;20396;-58
2021/10/27 00:45:14;;;;;;;115.68;52.70;;;128.40;2252.80;;;;;;4808107;29;20042;-58
2021/10/27 00:47:40;;;;;;;106.57;50.95;;;128.40;2252.80;;;;;;4807742;29;20546;-59
2021/10/27 00:50:06;;;;;;;148.10;56.55;;;128.50;2252.80;;;;;;4807722;29;20031;-68
2021/10/27 00:52:32;;;;;;;150.68;54.30;;;128.30;2252.80;;;;;;4807515;29;20059;-58
2021/10/27 00:54:58;;;;;;;159.57;57.15;;;128.10;2252.80;;;;;;4807605;29;20388;-58
2021/10/27 00:57:24;;;;;;;173.20;58.42;;;128.20;2252.80;;;;;;4807491;29;20047;-58
2021/10/27 00:59:51;;;;;;;159.77;55.22;;;128.20;2252.80;;;;;;4807413;29;20431;-58
2021/10/27 01:02:17;;;;;;;239.30;61.33;;;128.00;2252.80;;;;;;4807404;29;20519;-58
2021/10/27 01:04:45;;;;;;;162.70;57.75;;;103.20;2227.20;;;;;;4807594;29;20035;-58
2021/10/27 01:07:11;;;;;;;120.35;49.70;;;103.20;2227.20;;;;;;4807189;29;20035;-67
2021/10/27 01:09:38;;;;;;;138.52;55.28;;;103.30;2227.20;;;;;;4807386;29;20029;-58
2021/10/27 01:12:04;;;;;;;183.32;60.28;;;103.10;2227.20;;;;;;4807607;29;20438;-58
2021/10/27 01:14:35;;;;;;;185.35;60.45;;;103.00;2227.20;;;;;;4807121;29;20058;-69
2021/10/27 01:17:03;;;;;;;117.78;53.47;;;103.10;2227.20;;;;;;4807055;29;20035;-58
2021/10/27 01:19:32;;;;;;;142.60;52.50;;;103.10;2227.20;;;;;;4807105;29;20027;-58
2021/10/27 01:21:58;;;;;;;99.63;51.72;;;103.10;2227.20;;;;;;4807104;29;20083;-58
2021/10/27 01:24:24;;;;;;;93.82;51.00;;;103.20;2227.20;;;;;;4807154;29;20030;-58
2021/10/27 01:26:50;;;;;;;171.50;56.67;;;128.00;2252.80;;;;;;4807197;29;20039;-58
2021/10/27 01:29:16;;;;;;;267.50;65.30;;;103.30;2227.20;;;;;;4807587;29;20033;-58
2021/10/27 01:31:42;;;;;;;285.33;69.47;;;103.20;2227.20;;;;;;4806389;29;20474;-58
2021/10/27 01:34:07;;;;;;;202.02;66.05;;;103.10;2227.20;;;;;;4806923;29;20027;-58
2021/10/27 01:36:33;;;;;;;99.53;52.72;;;103.00;2227.20;;;;;;4807037;29;20038;-58
2021/10/27 01:38:59;;;;;;;116.65;56.40;;;103.10;2227.20;;;;;;4806822;29;20042;-58
2021/10/27 01:41:27;;;;;;;86.63;50.58;;;103.10;2227.20;;;;;;4806689;29;20046;-70
2021/10/27 01:43:55;;;;;;;85.80;50.80;;;103.00;2227.20;;;;;;4806745;29;20160;-68
2021/10/27 01:46:33;;;;;;;80.53;49.53;;;103.00;2227.20;;;;;;4806771;29;20546;-68
2021/10/27 01:49:00;;;;;;;72.07;49.22;;;103.00;2227.20;;;;;;4806906;29;20507;-58
2021/10/27 01:51:27;;;;;;;74.38;47.97;;;103.00;2227.20;;;;;;4806514;29;20519;-64
2021/10/27 01:53:54;;;;;;;88.70;54.20;;;103.10;2227.20;;;;;;4806466;29;20058;-58
2021/10/27 01:56:21;;;;;;;115.47;53.97;;;103.10;2227.20;;;;;;4806590;29;20072;-70
2021/10/27 01:58:46;;;;;;;88.55;51.03;;;103.00;2227.20;;;;;;4806773;29;20041;-63
2021/10/27 02:01:13;;;;;;;135.57;59.53;;;102.90;2227.20;;;;;;4806395;29;20047;-69
2021/10/27 02:03:39;;;;;;;90.53;53.80;;;102.70;2227.20;;;;;;4806488;29;20477;-58
2021/10/27 02:06:05;;;;;;;92.03;51.13;;;102.70;2227.20;;;;;;4806471;29;20042;-69
2021/10/27 02:08:31;;;;;;;75.53;51.35;;;102.60;2227.20;;;;;;4806502;29;20023;-59
2021/10/27 02:10:57;;;;;;;92.03;51.65;;;102.70;2227.20;;;;;;4806484;29;20035;-68
2021/10/27 02:13:23;;;;;;;63.42;45.47;;;102.70;2227.20;;;;;;4806709;29;20026;-71
2021/10/27 02:15:50;;;;;;;119.65;48.53;;;102.70;2227.20;;;;;;4806395;29;20039;-59
2021/10/27 02:18:15;;;;;;;95.97;50.03;;;102.70;2227.20;;;;;;4806925;29;20042;-70
2021/10/27 02:20:41;;;;;;;90.05;46.42;;;102.60;2227.20;;;;;;4806564;29;20039;-70
2021/10/27 02:23:07;;;;;;;111.93;46.97;;;102.70;2227.20;;;;;;4806292;29;20034;-59
2021/10/27 02:25:33;;;;;;;72.95;42.20;;;102.50;2227.20;;;;;;4806132;29;20031;-69
2021/10/27 02:27:59;;;;;;;72.20;42.13;;;102.40;2227.20;;;;;;4806319;29;20030;-58
2021/10/27 02:30:25;;;;;;;66.70;41.10;;;102.40;2227.20;;;;;;4807023;29;20041;-58
2021/10/27 02:32:51;;;;;;;66.28;43.53;;;77.70;2227.20;;;;;;4806491;29;20026;-69
2021/10/27 02:35:17;;;;;;;53.75;40.83;;;102.40;2227.20;;;;;;4806155;29;20113;-60
2021/10/27 02:37:43;;;;;;;53.05;39.20;;;102.40;2227.20;;;;;;4806145;29;20176;-70
2021/10/27 02:40:11;;;;;;;53.17;39.22;;;77.70;2227.20;;;;;;4806213;29;20047;-58
2021/10/27 02:42:39;;;;;;;55.03;40.58;;;77.70;2227.20;;;;;;4806679;29;20035;-59
2021/10/27 02:45:07;;;;;;;69.75;44.47;;;77.70;2227.20;;;;;;4809783;29;20035;-58
2021/10/27 02:47:33;;;;;;;97.00;46.10;;;77.50;2227.20;;;;;;4810050;29;20151;-58
2021/10/27 02:49:58;;;;;;;110.45;45.72;;;77.30;2227.20;;;;;;4809671;29;20449;-58
2021/10/27 02:52:24;;;;;;;102.82;47.22;;;77.40;2227.20;;;;;;4809561;29;20053;-69
2021/10/27 02:54:50;;;;;;;63.10;40.20;;;77.40;2227.20;;;;;;4810277;29;20031;-58
2021/10/27 02:57:16;;;;;;;51.60;36.28;;;77.60;2227.20;;;;;;4809669;29;20046;-69
2021/10/27 02:59:42;;;;;;;59.40;41.40;;;77.60;2227.20;;;;;;4809492;29;20450;-58
2021/10/27 03:02:08;;;;;;;56.95;39.22;;;77.50;2227.20;;;;;;4809546;29;20035;-58
2021/10/27 03:04:33;;;;;;;50.47;38.00;;;77.40;2227.20;;;;;;4809779;29;20030;-57
2021/10/27 03:06:59;;;;;;;106.53;45.55;;;77.40;2227.20;;;;;;4809308;29;20427;-58
2021/10/27 03:09:25;;;;;;;61.75;40.78;;;77.30;2227.20;;;;;;4809392;29;20036;-58
2021/10/27 03:11:53;;;;;;;69.70;43.03;;;77.40;2227.20;;;;;;4809355;29;20038;-58
2021/10/27 03:14:19;;;;;;;73.22;43.55;;;77.30;2227.20;;;;;;4809567;29;20031;-58
2021/10/27 03:16:46;;;;;;;90.57;45.70;;;77.30;2227.20;;;;;;4809323;29;20505;-58
2021/10/27 03:19:12;;;;;;;79.22;45.70;;;77.30;2227.20;;;;;;4809268;29;20087;-58
2021/10/27 03:21:38;;;;;;;66.63;40.93;;;77.30;2227.20;;;;;;4809149;29;20039;-58
2021/10/27 03:24:06;;;;;;;67.95;43.38;;;77.30;2227.20;;;;;;4809205;29;20038;-57
2021/10/27 03:26:32;;;;;;;64.95;41.53;;;77.30;2227.20;;;;;;4809076;29;20035;-58
2021/10/27 03:28:58;;;;;;;68.72;42.15;;;77.30;2227.20;;;;;;4809148;29;20034;-57
2021/10/27 03:31:24;;;;;;;64.97;41.33;;;77.30;2227.20;;;;;;4809648;29;20362;-59
2021/10/27 03:33:50;;;;;;;72.63;42.58;;;77.10;2227.20;;;;;;4808953;29;20084;-58
2021/10/27 03:36:17;;;;;;;67.20;43.13;;;77.20;2227.20;;;;;;4809244;29;20180;-58
2021/10/27 03:38:43;;;;;;;66.07;42.97;;;77.10;2227.20;;;;;;4809164;29;20041;-58
2021/10/27 03:41:08;;;;;;;70.85;45.05;;;76.90;2227.20;;;;;;4808785;29;20046;-58
2021/10/27 03:43:35;;;;;;;80.10;49.45;;;76.90;2227.20;;;;;;4809137;29;20035;-58
2021/10/27 03:46:00;;;;;;;75.00;47.40;;;76.90;2227.20;;;;;;4808790;29;20454;-58
2021/10/27 03:48:26;;;;;;;64.60;42.78;;;77.00;2227.20;;;;;;4809055;29;20070;-58
2021/10/27 03:50:52;;;;;;;63.80;42.53;;;77.20;2227.20;;;;;;4809011;29;20417;-59
2021/10/27 03:53:18;;;;;;;88.47;46.85;;;77.40;2227.20;;;;;;4808492;29;20055;-69
2021/10/27 03:55:44;;;;;;;85.07;50.72;;;77.50;2227.20;;;;;;4791816;29;20035;-57
2021/10/27 03:58:10;;;;;;;74.40;44.28;;;77.60;2227.20;;;;;;4808822;29;20026;-59
2021/10/27 04:00:37;;;;;;;79.82;42.65;;;77.70;2227.20;;;;;;4808212;29;20393;-58
2021/10/27 04:03:03;;;;;;;75.13;42.10;;;77.70;2227.20;;;;;;4808503;29;20034;-67
2021/10/27 04:05:30;;;;;;;109.03;47.78;;;77.70;2227.20;;;;;;4808468;29;20079;-63
2021/10/27 04:07:55;;;;;;;85.55;42.85;;;77.60;2227.20;;;;;;4807884;29;20039;-58
2021/10/27 04:10:21;;;;;;;109.35;48.78;;;77.70;2227.20;;;;;;4808054;29;20106;-58
2021/10/27 04:12:47;;;;;;;167.27;58.17;;;77.60;2227.20;;;;;;4791457;29;20457;-58
2021/10/27 04:15:13;;;;;;;252.07;62.28;;;102.40;2227.20;;;;;;4812403;29;20030;-70
2021/10/27 04:17:40;;;;;;;321.63;70.78;;;102.40;2227.20;;;;;;4814636;29;20030;-58
2021/10/27 04:20:08;;;;;;;329.10;78.25;;;102.40;2227.20;;;;;;4815859;29;20035;-65
2021/10/27 04:22:37;;;;;;;251.02;75.65;;;77.70;2227.20;;;;;;4814918;29;20042;-65
2021/10/27 04:25:03;;;;;;;246.77;68.63;;;77.70;2227.20;;;;;;4816295;29;20079;-66
2021/10/27 04:27:29;;;;;;;206.13;65.38;;;77.70;2227.20;;;;;;4816535;29;20027;-60
2021/10/27 04:29:55;;;;;;;213.55;67.70;;;77.70;2227.20;;;;;;4823177;29;20038;-59
2021/10/27 04:32:21;;;;;;;220.82;74.97;;;77.70;2227.20;;;;;;4826371;29;20037;-66
2021/10/27 04:34:47;;;;;;;194.65;69.28;;;77.70;2227.20;;;;;;4816079;29;20039;-65
2021/10/27 04:37:13;;;;;;;224.68;72.70;;;102.40;2227.20;;;;;;4812485;29;20106;-60
2021/10/27 04:39:39;;;;;;;174.10;62.30;;;102.40;2227.20;;;;;;4815999;29;20037;-58
2021/10/27 04:42:05;;;;;;;140.73;52.97;;;102.40;2227.20;;;;;;4808673;29;20031;-58
2021/10/27 04:44:30;;;;;;;133.27;53.22;;;102.40;2227.20;;;;;;4808004;29;20034;-59
2021/10/27 04:46:57;;;;;;;129.00;48.38;;;102.40;2227.20;;;;;;4808126;29;20389;-68
2021/10/27 04:49:23;;;;;;;111.85;47.83;;;102.40;2227.20;;;;;;4807731;29;20027;-69
2021/10/27 04:51:49;;;;;;;142.68;53.00;;;102.40;2227.20;;;;;;4807570;29;20044;-69
2021/10/27 04:54:15;;;;;;;146.90;51.60;;;102.40;2227.20;;;;;;4807606;29;20115;-70
2021/10/27 04:56:41;;;;;;;148.07;59.38;;;102.40;2227.20;;;;;;4807279;29;20031;-67
2021/10/27 04:59:07;;;;;;;349.33;75.55;;;102.50;2227.20;;;;;;4807213;29;20049;-59
2021/10/27 05:01:33;;;;;;;338.65;77.25;;;102.40;2227.20;;;;;;4807212;29;20039;-59
2021/10/27 05:03:59;;;;;;;280.13;61.17;;;77.70;2227.20;;;;;;4806938;29;20439;-59
2021/10/27 05:06:25;;;;;;;185.95;62.65;;;77.60;2227.20;;;;;;4805802;29;20374;-69
2021/10/27 05:08:51;;;;;;;341.23;68.07;;;77.70;2227.20;;;;;;4806804;29;20041;-59
2021/10/27 05:11:17;;;;;;;380.23;75.10;;;77.60;2227.20;;;;;;4806609;29;20035;-59
2021/10/27 05:13:44;;;;;;;250.75;62.58;;;77.30;2227.20;;;;;;4806911;29;20030;-60
2021/10/27 05:16:11;;;;;;;212.40;61.00;;;77.30;2227.20;;;;;;4804447;29;20045;-60
2021/10/27 05:18:37;;;;;;;176.63;63.03;;;77.40;2227.20;;;;;;4807140;29;20102;-70
2021/10/27 05:21:03;;;;;;;191.32;62.97;;;77.50;2227.20;;;;;;4807098;29;20043;-70
2021/10/27 05:23:29;;;;;;;344.05;72.57;;;77.50;2227.20;;;;;;4806949;29;20037;-59
2021/10/27 05:25:54;;;;;;;207.93;64.37;;;77.50;2227.20;;;;;;4806890;29;20039;-60
2021/10/27 05:28:20;;;;;;;164.77;55.97;;;77.50;2227.20;;;;;;4806981;29;20106;-59
2021/10/27 05:30:47;;;;;;;154.23;54.25;;;77.50;2227.20;;;;;;4806893;29;20031;-70
2021/10/27 05:33:14;;;;;;;158.20;56.97;;;77.40;2227.20;;;;;;4806981;29;20109;-70
2021/10/27 05:35:41;;;;;;;141.45;57.65;;;77.30;2227.20;;;;;;4807027;29;20062;-60
2021/10/27 05:38:07;;;;;;;119.88;54.58;;;77.40;2227.20;;;;;;4807047;29;20042;-59
2021/10/27 05:40:33;;;;;;;220.10;70.07;;;77.40;2227.20;;;;;;4805109;29;20058;-60
2021/10/27 05:43:05;;;;;;;150.03;60.83;;;77.50;2227.20;;;;;;4804869;29;20042;-60
2021/10/27 05:45:33;;;;;;;219.73;64.87;;;77.60;2227.20;;;;;;4805738;29;20493;-61
2021/10/27 05:48:01;;;;;;;238.53;67.00;;;77.50;2227.20;;;;;;4806039;29;20480;-60
2021/10/27 05:55:44;;;;;;;127.63;52.80;;;77.40;2227.20;;;;;;4807022;29;20029;-60
2021/10/27 05:58:11;;;;;;;165.35;59.38;;;77.40;2227.20;;;;;;4806314;29;20031;-70
2021/10/27 06:00:39;;;;;;;398.10;83.32;;;77.40;2227.20;;;;;;4806599;29;20046;-63
2021/10/27 06:03:05;;;;;;;325.97;80.67;;;77.30;2227.20;;;;;;4806596;29;20516;-62
2021/10/27 06:05:31;;;;;;;243.30;71.63;;;77.30;2227.20;;;;;;4806860;29;20039;-69
2021/10/27 06:07:58;;;;;;;317.03;75.43;;;77.40;2227.20;;;;;;4806604;29;20057;-62
2021/10/27 06:10:25;;;;;;;275.90;76.60;;;77.40;2227.20;;;;;;4806435;29;20030;-62
2021/10/27 06:12:57;;;;;;;174.37;65.43;;;77.20;2227.20;;;;;;4806425;29;20034;-62
2021/10/27 06:15:23;;;;;;;202.73;75.53;;;77.20;2227.20;;;;;;4803525;29;20033;-62
2021/10/27 06:17:52;;;;;;;143.50;62.60;;;77.00;2227.20;;;;;;4803743;29;20515;-63
2021/10/27 06:20:22;;;;;;;198.77;68.13;;;77.40;2227.20;;;;;;4804784;29;20060;-62
2021/10/27 06:22:48;;;;;;;160.57;61.03;;;77.40;2227.20;;;;;;4806057;29;20030;-61
2021/10/27 06:25:14;;;;;;;149.97;63.10;;;77.20;2227.20;;;;;;4805948;29;20034;-61
2021/10/27 06:27:45;;;;;;;240.90;73.57;;;77.20;2227.20;;;;;;4806274;29;20099;-67
2021/10/27 06:30:27;;;;;;;335.63;82.70;;;77.30;2227.20;;;;;;4806494;29;20035;-62
2021/10/27 06:33:03;;;;;;;259.37;78.07;;;77.40;2227.20;;;;;;4806180;29;20031;-63
2021/10/27 06:35:38;;;;;;;174.10;69.43;;;77.40;2227.20;;;;;;4806019;29;20023;-68
2021/10/27 06:49:03;;;;;;;266.20;96.80;;;77.60;2227.20;;;;;;4806263;29;20540;-68
2021/10/27 06:51:30;;;;;;;205.82;82.47;;;77.70;2227.20;;;;;;4790043;29;20058;-69
2021/10/27 06:53:57;;;;;;;149.95;72.65;;;102.50;2227.20;;;;;;4805917;29;20471;-66
2021/10/27 06:56:23;;;;;;;126.57;63.00;;;102.50;2227.20;;;;;;4805969;29;20057;-64
2021/10/27 06:58:56;;;;;;;136.90;70.70;;;102.60;2227.20;;;;;;4806194;29;20034;-61
2021/10/27 07:01:40;;;;;;;174.63;72.30;;;102.70;2227.20;;;;;;4806222;29;20047;-62
2021/10/27 07:15:09;;;;;;;108.13;54.03;;;102.70;2227.20;;;;;;4805979;29;20511;-68
2021/10/27 07:17:35;;;;;;;121.43;55.57;;;102.60;2227.20;;;;;;4805689;29;20093;-61
2021/10/27 07:20:04;;;;;;;155.30;62.73;;;102.70;2227.20;;;;;;4805649;29;20069;-63
2021/10/27 07:22:32;;;;;;;148.83;64.40;;;102.60;2227.20;;;;;;4805598;29;20031;-70
2021/10/27 07:25:00;;;;;;;156.50;65.87;;;102.60;2227.20;;;;;;4788065;29;20481;-62
2021/10/27 07:27:26;;;;;;;133.35;61.05;;;102.70;2227.20;;;;;;4804798;29;20035;-62
2021/10/27 07:29:52;;;;;;;167.70;72.37;;;102.60;2227.20;;;;;;4805818;29;20388;-61
2021/10/27 07:32:18;;;;;;;184.70;71.20;;;102.60;2227.20;;;;;;4807331;29;20034;-67
2021/10/27 07:42:35;;;;;;;206.57;74.40;;;102.90;2227.20;;;;;;4807604;29;20035;-66
2021/10/27 07:45:01;;;;;;;182.95;76.30;;;102.80;2227.20;;;;;;4808609;29;20030;-68
2021/10/27 07:47:27;;;;;;;212.27;82.20;;;102.80;2227.20;;;;;;4808703;29;20039;-68
2021/10/27 07:49:53;;;;;;;145.37;75.80;;;102.80;2227.20;;;;;;4808877;29;20130;-68
2021/10/27 07:52:19;;;;;;;159.75;74.22;;;103.00;2227.20;;;;;;4808307;29;20456;-65
2021/10/27 07:54:46;;;;;;;124.00;68.97;;;103.20;2227.20;;;;;;4808439;29;20031;-65
2021/10/27 07:57:12;;;;;;;197.30;71.75;;;128.00;2252.80;;;;;;4807760;29;20086;-67
2021/10/27 07:59:38;;;;;;;180.23;71.60;;;103.20;2227.20;;;;;;4808150;29;20043;-67
2021/10/27 08:02:05;;;;;;;146.98;62.65;;;103.20;2227.20;;;;;;4807461;29;20425;-68
2021/10/27 08:04:30;;;;;;;117.80;63.80;;;128.10;2252.80;;;;;;4808059;29;20109;-68
2021/10/27 08:06:56;;;;;;;140.75;66.07;;;128.30;2252.80;;;;;;4807931;29;20167;-69
2021/10/27 08:09:22;;;;;;;141.77;63.05;;;128.40;2252.80;;;;;;4808002;29;20030;-65
2021/10/27 08:11:49;;;;;;;127.93;63.97;;;128.30;2252.80;;;;;;4808241;29;20030;-66
2021/10/27 08:14:15;;;;;;;112.00;62.72;;;128.40;2252.80;;;;;;4808269;29;20038;-67
2021/10/27 08:16:42;;;;;;;139.77;68.05;;;128.60;2252.80;;;;;;4807965;29;20027;-65
2021/10/27 08:19:09;;;;;;;131.82;70.82;;;128.60;2252.80;;;;;;4808301;29;20118;-67
2021/10/27 08:21:35;;;;;;;150.98;69.35;;;128.70;2252.80;;;;;;4807852;29;20070;-69
2021/10/27 08:24:02;;;;;;;192.73;69.80;;;128.70;2252.80;;;;;;4808040;29;20035;-68
2021/10/27 08:26:29;;;;;;;154.43;71.25;;;128.50;2252.80;;;;;;4807969;29;20037;-67
2021/10/27 08:29:00;;;;;;;133.20;72.78;;;128.50;2252.80;;;;;;4807867;29;20445;-68
2021/10/27 08:31:36;;;;;;;124.05;74.40;;;128.60;2252.80;;;;;;4807697;29;20070;-62
2021/10/27 08:36:27;;;;;;;182.18;85.50;;;128.90;2252.80;;;;;;4807155;29;20477;-64
2021/10/27 08:38:54;;;;;;;167.85;81.03;;;128.80;2252.80;;;;;;4808049;29;20061;-63
2021/10/27 08:41:20;;;;;;;183.23;83.10;;;128.90;2252.80;;;;;;4807616;29;20068;-65
2021/10/27 08:43:47;;;;;;;128.43;77.10;;;153.60;2252.80;;;;;;4807511;29;20027;-67
2021/10/27 08:46:13;;;;;;;152.40;77.70;;;153.70;2252.80;;;;;;4807998;29;20035;-68
2021/10/27 08:48:44;;;;;;;123.28;72.88;;;153.60;2252.80;;;;;;4807768;29;20027;-66
2021/10/27 08:51:12;;;;;;;149.07;80.00;;;153.60;2252.80;;;;;;4807680;29;20035;-65
2021/10/27 08:53:38;;;;;;;157.30;78.05;;;153.80;2252.80;;;;;;4807373;29;20473;-68
2021/10/27 08:56:06;;;;;;;160.30;80.40;;;153.60;2252.80;;;;;;4807436;29;20069;-66
2021/10/27 08:58:41;;;;;;;141.88;82.10;;;153.80;2252.80;;;;;;4806231;29;20023;-62
2021/10/27 09:01:15;;;;;;;150.82;81.93;;;153.90;2252.80;;;;;;4807391;29;20118;-63
2021/10/27 09:04:06;;;;;;;163.20;85.47;;;153.90;2252.80;;;;;;4807307;29;20121;-62
2021/10/27 09:06:57;;;;;;;142.10;80.90;;;154.10;2252.80;;;;;;4807631;29;20070;-65
2021/10/27 09:15:32;;;;;;;152.30;90.53;;;154.00;2252.80;;;;;;4807428;29;20507;-67
2021/10/27 09:47:41;;;;;;;134.68;81.80;;;179.80;2252.80;;;;;;4750985;30;20044;-63
2021/10/27 10:04:07;;;;;;;152.07;91.97;;;180.00;2252.80;;;;;;4750986;30;20123;-62
2021/10/27 10:06:40;;;;;;;168.40;95.75;;;180.00;2252.80;;;;;;4750673;30;20036;-66
2021/10/27 10:09:07;;;;;;;181.93;114.07;;;180.10;2252.80;;;;;;4750479;30;20104;-62
2021/10/27 10:11:34;;;;;;;177.23;103.32;;;180.10;2252.80;;;;;;4750392;30;20060;-63
2021/10/27 10:14:05;;;;;;;173.88;103.80;;;179.90;2252.80;;;;;;4750585;30;20126;-62
2021/10/27 10:16:42;;;;;;;158.77;100.72;;;180.10;2252.80;;;;;;4750656;30;20037;-62
2021/10/27 10:19:11;;;;;;;157.70;96.13;;;205.30;2252.80;;;;;;4750288;30;20054;-62
2021/10/27 10:21:40;;;;;;;155.32;93.28;;;205.60;2252.80;;;;;;4750151;30;20052;-62
2021/10/27 10:24:32;;;;;;;162.32;94.68;;;230.50;2252.80;;;;;;4806129;29;20030;-65
2021/10/27 10:27:10;;;;;;;162.88;99.93;;;231.20;2252.80;;;;;;4803759;29;20038;-63
2021/10/27 10:32:27;;;;;;;160.50;99.55;;;230.90;2252.80;;;;;;4806456;29;20042;-67
2021/10/27 10:35:11;;;;;;;153.38;97.82;;;230.70;2252.80;;;;;;4806086;29;20463;-66
2021/10/27 10:38:21;;;;;;;;;;;230.60;2252.80;;;;;;4806427;29;20046;-64
2021/10/27 10:40:48;;;;;;;162.73;101.35;;;230.80;2252.80;;;;;;4793670;29;19933;-66
2021/10/27 10:44:19;;;;;;;154.18;98.40;;;231.20;2252.80;;;;;;4788269;30;20397;-62
2021/10/27 11:01:20;;;;;;;165.23;107.40;;;256.60;2227.20;;;;;;4749489;30;20542;-64
2021/10/27 11:03:53;;;;;;;162.25;109.70;;;256.50;2227.20;;;;;;4748678;30;20036;-68
2021/10/27 11:26:35;;;;;;;263.25;133.45;;;256.80;2252.80;;;;;;4753505;30;20029;-64
2021/10/27 11:40:37;;;;;;;182.55;109.20;;;281.80;2227.20;;;;;;4752849;30;20032;-63
2021/10/27 11:43:16;;;;;;;195.40;112.10;;;281.80;2201.60;;;;;;4752852;30;20068;-61
2021/10/27 11:45:57;;;;;;;218.93;137.82;;;281.80;2201.60;;;;;;4752794;30;20028;-61
2021/10/27 11:48:34;;;;;;;183.15;106.80;;;282.00;2176.00;;;;;;4752151;30;20073;-71
2021/10/27 11:51:09;;;;;;;183.73;107.05;;;282.00;2124.80;;;;;;4751952;30;20035;-71
2021/10/27 11:53:36;;;;;;;167.07;103.75;;;282.10;2124.80;;;;;;4752647;30;20084;-71
2021/10/27 11:56:15;;;;;;;181.20;105.03;;;282.30;2150.40;;;;;;4752556;30;20119;-71
2021/10/27 11:59:01;;;;;;;178.70;106.07;;;282.50;2124.80;;;;;;4752601;30;20032;-71
2021/10/27 12:01:41;;;;;;;170.63;99.95;;;307.30;2099.20;;;;;;4752277;30;20379;-71
2021/10/27 12:04:16;;;;;;;152.80;99.18;;;333.10;1996.80;;;;;;4752193;30;20123;-71
2021/10/27 12:06:48;;;;;;;147.70;97.72;;;333.70;1868.80;;;;;;4752563;30;20064;-71
2021/10/27 12:12:16;;;;;;;166.98;107.28;;;333.30;1920.00;;;;;;4752153;30;20028;-64
2021/10/27 12:20:41;;;;;;;139.50;90.68;;;308.10;1971.20;;;;;;4807840;29;19935;-71
2021/10/27 12:23:17;;;;;;;137.02;84.15;;;308.00;1996.80;;;;;;4808278;29;20508;-63
2021/10/27 12:25:43;;;;;;;126.57;82.28;;;308.00;1971.20;;;;;;4807865;29;20397;-69
2021/10/27 12:28:26;;;;;;;125.88;81.75;;;308.00;1971.20;;;;;;4807887;29;20484;-71
2021/10/27 12:30:52;;;;;;;263.93;156.20;;;308.00;1920.00;;;;;;4807710;29;20039;-71
2021/10/27 12:33:34;;;;;;;197.35;117.03;;;308.10;1920.00;;;;;;4807872;29;20026;-71
2021/10/27 12:36:25;;;;;;;104.45;69.95;;;308.10;1894.40;;;;;;4807851;29;20033;-70
2021/10/27 12:39:17;;;;;;;114.18;70.07;;;332.80;1894.40;;;;;;4807227;29;20031;-69
2021/10/27 12:41:46;;;;;;;100.03;62.75;;;332.90;1894.40;;;;;;4807364;29;20050;-64
2021/10/27 12:44:20;;;;;;;104.13;65.28;;;333.00;1868.80;;;;;;4807870;29;20035;-67
2021/10/27 12:46:46;;;;;;;107.40;66.35;;;333.30;1843.20;;;;;;4807704;29;20038;-63
2021/10/27 12:49:22;;;;;;;105.18;67.70;;;333.30;1868.80;;;;;;4807760;29;20079;-69
2021/10/27 12:51:48;;;;;;;95.38;60.13;;;333.40;1868.80;;;;;;4806860;29;20042;-68
2021/10/27 12:54:15;;;;;;;91.97;59.92;;;333.50;1843.20;;;;;;4807381;29;20473;-70
2021/10/27 12:56:41;;;;;;;94.30;58.88;;;333.70;1817.60;;;;;;4807416;29;20035;-68
2021/10/27 12:59:11;;;;;;;88.55;59.17;;;358.50;1792.00;;;;;;4807572;29;20430;-68
2021/10/27 13:01:42;;;;;;;89.85;59.50;;;359.00;1715.20;;;;;;4807387;29;20389;-64
2021/10/27 13:18:05;;;;;;;79.53;53.95;;;435.30;1484.80;;;;;;4807077;29;20114;-71
2021/10/27 13:31:20;;;;;;;113.13;79.30;;;436.00;1459.20;;;;;;4806629;29;20054;-69
2021/10/27 13:33:46;;;;;;;92.10;64.25;;;435.80;1484.80;;;;;;4806693;29;20042;-70
2021/10/27 13:36:12;;;;;;;88.78;61.03;;;435.70;1433.60;;;;;;4807011;29;20035;-69
2021/10/27 13:38:38;;;;;;;93.00;65.22;;;435.70;1433.60;;;;;;4806681;29;20388;-69
2021/10/27 13:41:07;;;;;;;96.18;68.93;;;435.70;1459.20;;;;;;4806517;29;20131;-70
2021/10/27 13:46:40;;;;;;;74.63;50.75;;;435.90;1408.00;;;;;;4806893;29;20046;-66
2021/10/27 14:08:23;;;;;;;64.40;44.85;;;384.70;1510.40;;;;;;4806422;29;20030;-61
2021/10/27 14:13:38;;;;;;;65.60;43.95;;;384.10;1587.20;;;;;;4805628;29;20038;-69
2021/10/27 14:18:57;;;;;;;64.18;42.75;;;359.20;1612.80;;;;;;4805555;29;20027;-66
2021/10/27 15:44:09;;;;;;;290.20;180.45;;;282.50;2022.40;;;;;;4788392;30;20581;-69
2021/10/27 15:52:07;;;;;;;300.45;180.13;;;282.10;2073.60;;;;;;4789470;29;20077;-70
2021/10/27 15:54:33;;;;;;;331.30;201.73;;;282.00;2073.60;;;;;;4806623;29;20035;-67
2021/10/27 15:57:00;;;;;;;328.23;199.13;;;281.90;2099.20;;;;;;4806628;29;20146;-69
2021/10/27 15:59:26;;;;;;;341.77;205.75;;;281.80;2099.20;;;;;;4821250;29;20377;-68
2021/10/27 16:01:52;;;;;;;282.15;172.35;;;281.70;2124.80;;;;;;4826569;29;20046;-69
2021/10/27 16:04:18;;;;;;;258.33;157.07;;;281.60;2124.80;;;;;;4810029;29;20559;-64
2021/10/27 16:06:52;;;;;;;271.67;135.98;;;281.60;2150.40;;;;;;4826492;29;20159;-70
2021/10/27 16:09:19;;;;;;;255.70;147.05;;;281.60;2201.60;;;;;;4826517;29;20388;-69
2021/10/27 16:11:45;;;;;;;261.90;154.48;;;256.90;2124.80;;;;;;4826566;29;20038;-69
2021/10/27 16:14:12;;;;;;;241.25;143.30;;;256.80;2124.80;;;;;;4826452;29;20030;-61
2021/10/27 16:16:38;;;;;;;251.63;147.45;;;256.80;2150.40;;;;;;4826306;29;20026;-69
2021/10/27 16:19:04;;;;;;;308.15;157.10;;;256.70;2150.40;;;;;;4826449;29;20102;-70
2021/10/27 16:21:30;;;;;;;273.42;157.02;;;256.60;2176.00;;;;;;4809841;29;20039;-65
2021/10/27 16:23:59;;;;;;;347.55;200.00;;;256.60;2150.40;;;;;;4825860;29;20160;-61
2021/10/27 16:26:26;;;;;;;427.90;240.07;;;256.50;2176.00;;;;;;4826475;29;20034;-69
2021/10/27 16:28:52;;;;;;;380.63;214.15;;;256.40;2176.00;;;;;;4825816;29;20038;-67
2021/10/27 16:31:18;;;;;;;343.83;197.15;;;256.50;2176.00;;;;;;4825915;29;20045;-68
2021/10/27 16:33:45;;;;;;;289.33;167.02;;;256.30;2201.60;;;;;;4825809;29;20087;-68
2021/10/27 16:36:12;;;;;;;300.05;172.80;;;256.30;2201.60;;;;;;4825933;29;20095;-70
2021/10/27 16:38:42;;;;;;;292.02;177.43;;;256.30;2201.60;;;;;;4825959;29;20029;-62
2021/10/27 16:41:09;;;;;;;292.80;172.07;;;256.20;2201.60;;;;;;4825829;29;20384;-62
2021/10/27 16:43:36;;;;;;;338.58;199.88;;;256.10;2227.20;;;;;;4825790;29;20031;-62
2021/10/27 16:46:02;;;;;;;321.75;195.27;;;256.00;2252.80;;;;;;4825743;29;20035;-62